sensor_id;sensor_type;location;lat;lon;timestamp;pressure;altitude;pressure_sealevel;temperature;humidity
73332;BME280;61560;33.718;73.040;2022-11-20T00:00:08;95150.69;;;12.02;67.89
73332;BME280;61560;33.718;73.040;2022-11-20T00:02:35;95151.81;;;12.05;67.88
73332;BME280;61560;33.718;73.040;2022-11-20T00:05:03;95160.84;;;12.05;67.93
73332;BME280;61560;33.718;73.040;2022-11-20T00:07:29;95154.19;;;12.03;67.57
73332;BME280;61560;33.718;73.040;2022-11-20T00:09:55;95159.38;;;11.97;67.72
73332;BME280;61560;33.718;73.040;2022-11-20T00:12:21;95148.88;;;11.92;67.71
73332;BME280;61560;33.718;73.040;2022-11-20T00:14:47;95153.63;;;11.88;67.86
73332;BME280;61560;33.718;73.040;2022-11-20T00:17:14;95162.25;;;11.87;67.66
73332;BME280;61560;33.718;73.040;2022-11-20T00:19:40;95153.31;;;11.83;67.92
73332;BME280;61560;33.718;73.040;2022-11-20T00:22:06;95164.34;;;11.79;68.15
73332;BME280;61560;33.718;73.040;2022-11-20T00:24:32;95165.16;;;11.76;68.47
73332;BME280;61560;33.718;73.040;2022-11-20T00:26:58;95166.34;;;11.75;68.51
73332;BME280;61560;33.718;73.040;2022-11-20T00:29:24;95163.66;;;11.72;68.73
73332;BME280;61560;33.718;73.040;2022-11-20T00:31:51;95164.03;;;11.70;68.52
73332;BME280;61560;33.718;73.040;2022-11-20T00:34:17;95164.91;;;11.64;68.66
73332;BME280;61560;33.718;73.040;2022-11-20T00:36:43;95168.81;;;11.63;68.39
73332;BME280;61560;33.718;73.040;2022-11-20T00:39:09;95161.44;;;11.60;68.26
73332;BME280;61560;33.718;73.040;2022-11-20T00:41:35;95168.91;;;11.55;67.79
73332;BME280;61560;33.718;73.040;2022-11-20T00:44:01;95170.91;;;11.51;68.18
73332;BME280;61560;33.718;73.040;2022-11-20T00:46:28;95170.91;;;11.51;68.18
73332;BME280;61560;33.718;73.040;2022-11-20T00:48:54;95169.72;;;11.52;68.37
73332;BME280;61560;33.718;73.040;2022-11-20T00:51:23;95178.00;;;11.49;68.54
73332;BME280;61560;33.718;73.040;2022-11-20T00:53:50;95177.63;;;11.47;69.30
73332;BME280;61560;33.718;73.040;2022-11-20T00:56:17;95176.50;;;11.44;69.18
73332;BME280;61560;33.718;73.040;2022-11-20T00:58:44;95173.38;;;11.42;69.30
73332;BME280;61560;33.718;73.040;2022-11-20T01:01:15;95173.38;;;11.42;69.53
73332;BME280;61560;33.718;73.040;2022-11-20T01:03:43;95176.59;;;11.34;69.78
73332;BME280;61560;33.718;73.040;2022-11-20T01:06:11;95177.78;;;11.33;69.83
73332;BME280;61560;33.718;73.040;2022-11-20T01:08:38;95185.25;;;11.32;69.89
73332;BME280;61560;33.718;73.040;2022-11-20T01:11:05;95186.41;;;11.31;69.90
73332;BME280;61560;33.718;73.040;2022-11-20T01:13:32;95197.44;;;11.28;70.29
73332;BME280;61560;33.718;73.040;2022-11-20T01:16:05;95193.53;;;11.25;70.24
73332;BME280;61560;33.718;73.040;2022-11-20T01:18:32;95197.44;;;11.28;70.34
73332;BME280;61560;33.718;73.040;2022-11-20T01:21:04;95189.63;;;11.26;69.89
73332;BME280;61560;33.718;73.040;2022-11-20T01:23:32;95198.22;;;11.28;70.03
73332;BME280;61560;33.718;73.040;2022-11-20T01:25:59;95197.00;;;11.29;70.17
73332;BME280;61560;33.718;73.040;2022-11-20T01:28:26;95197.84;;;11.26;70.17
73332;BME280;61560;33.718;73.040;2022-11-20T01:30:52;95195.84;;;11.27;70.45
73332;BME280;61560;33.718;73.040;2022-11-20T01:33:19;95204.44;;;11.29;70.26
73332;BME280;61560;33.718;73.040;2022-11-20T01:35:45;95203.69;;;11.28;70.25
73332;BME280;61560;33.718;73.040;2022-11-20T01:38:12;95213.09;;;11.27;70.46
73332;BME280;61560;33.718;73.040;2022-11-20T01:40:38;95222.88;;;11.28;70.45
73332;BME280;61560;33.718;73.040;2022-11-20T01:43:09;95214.28;;;11.26;70.27
73332;BME280;61560;33.718;73.040;2022-11-20T01:48:19;95220.22;;;11.21;70.73
73332;BME280;61560;33.718;73.040;2022-11-20T01:50:48;95221.78;;;11.22;70.83
73332;BME280;61560;33.718;73.040;2022-11-20T01:53:16;95221.41;;;11.20;70.81
73332;BME280;61560;33.718;73.040;2022-11-20T01:55:45;95222.94;;;11.21;70.81
73332;BME280;61560;33.718;73.040;2022-11-20T01:58:14;95226.47;;;11.22;70.83
73332;BME280;61560;33.718;73.040;2022-11-20T02:00:41;95236.25;;;11.23;71.04
73332;BME280;61560;33.718;73.040;2022-11-20T02:03:09;95231.13;;;11.28;71.04
73332;BME280;61560;33.718;73.040;2022-11-20T02:05:37;95245.19;;;11.30;70.70
73332;BME280;61560;33.718;73.040;2022-11-20T02:08:05;95242.78;;;11.36;70.58
73332;BME280;61560;33.718;73.040;2022-11-20T02:10:32;95240.75;;;11.43;70.67
73332;BME280;61560;33.718;73.040;2022-11-20T02:12:59;95244.56;;;11.53;70.60
73332;BME280;61560;33.718;73.040;2022-11-20T02:15:44;95251.84;;;11.70;69.90
73332;BME280;61560;33.718;73.040;2022-11-20T02:18:11;95249.34;;;12.16;68.85
73332;BME280;61560;33.718;73.040;2022-11-20T02:20:38;95249.94;;;12.58;67.52
73332;BME280;61560;33.718;73.040;2022-11-20T02:23:09;95254.06;;;12.96;66.51
73332;BME280;61560;33.718;73.040;2022-11-20T02:25:38;95255.06;;;13.32;65.28
73332;BME280;61560;33.718;73.040;2022-11-20T02:28:05;95253.06;;;13.56;63.96
73332;BME280;61560;33.718;73.040;2022-11-20T02:30:31;95246.25;;;13.83;63.11
73332;BME280;61560;33.718;73.040;2022-11-20T02:32:57;95248.25;;;14.03;62.67
73332;BME280;61560;33.718;73.040;2022-11-20T02:37:50;95257.13;;;14.10;62.40
73332;BME280;61560;33.718;73.040;2022-11-20T02:40:19;95266.38;;;14.39;61.81
73332;BME280;61560;33.718;73.040;2022-11-20T02:42:45;95263.53;;;15.46;59.39
73332;BME280;61560;33.718;73.040;2022-11-20T02:45:11;95261.97;;;16.85;55.73
73332;BME280;61560;33.718;73.040;2022-11-20T02:47:38;95255.66;;;18.16;52.19
73332;BME280;61560;33.718;73.040;2022-11-20T02:50:04;95259.41;;;18.96;49.73
73332;BME280;61560;33.718;73.040;2022-11-20T02:52:31;95260.66;;;19.44;48.63
73332;BME280;61560;33.718;73.040;2022-11-20T02:54:57;95268.00;;;19.78;47.81
73332;BME280;61560;33.718;73.040;2022-11-20T02:57:23;95266.44;;;19.68;47.84
73332;BME280;61560;33.718;73.040;2022-11-20T02:59:50;95280.72;;;19.39;48.27
73332;BME280;61560;33.718;73.040;2022-11-20T03:02:20;95283.78;;;19.01;49.13
73332;BME280;61560;33.718;73.040;2022-11-20T03:04:46;95295.72;;;18.58;50.26
73332;BME280;61560;33.718;73.040;2022-11-20T03:07:13;95289.81;;;18.13;51.70
73332;BME280;61560;33.718;73.040;2022-11-20T03:09:40;95292.03;;;17.71;52.52
73332;BME280;61560;33.718;73.040;2022-11-20T03:12:06;95296.84;;;17.33;51.22
73332;BME280;61560;33.718;73.040;2022-11-20T03:14:33;95300.06;;;16.94;52.70
73332;BME280;61560;33.718;73.040;2022-11-20T03:17:00;95298.63;;;16.77;52.22
73332;BME280;61560;33.718;73.040;2022-11-20T03:19:26;95299.13;;;16.59;51.49
73332;BME280;61560;33.718;73.040;2022-11-20T03:21:52;95309.34;;;16.46;51.51
73332;BME280;61560;33.718;73.040;2022-11-20T03:24:19;95314.94;;;16.30;51.28
73332;BME280;61560;33.718;73.040;2022-11-20T03:26:45;95314.91;;;16.17;52.26
73332;BME280;61560;33.718;73.040;2022-11-20T03:29:11;95310.97;;;16.02;53.07
73332;BME280;61560;33.718;73.040;2022-11-20T03:31:39;95314.47;;;15.90;52.60
73332;BME280;61560;33.718;73.040;2022-11-20T03:34:06;95315.59;;;15.77;52.04
73332;BME280;61560;33.718;73.040;2022-11-20T03:36:33;95322.94;;;15.67;52.76
73332;BME280;61560;33.718;73.040;2022-11-20T03:38:59;95327.25;;;15.68;53.30
73332;BME280;61560;33.718;73.040;2022-11-20T03:41:26;95323.81;;;15.64;53.04
73332;BME280;61560;33.718;73.040;2022-11-20T03:46:20;95329.59;;;15.70;53.45
73332;BME280;61560;33.718;73.040;2022-11-20T03:48:47;95328.47;;;15.67;52.73
73332;BME280;61560;33.718;73.040;2022-11-20T03:51:17;95334.34;;;15.69;52.52
73332;BME280;61560;33.718;73.040;2022-11-20T03:53:45;95337.78;;;15.73;52.27
73332;BME280;61560;33.718;73.040;2022-11-20T03:56:11;95331.22;;;15.83;51.64
73332;BME280;61560;33.718;73.040;2022-11-20T03:58:39;95340.41;;;16.09;51.90
73332;BME280;61560;33.718;73.040;2022-11-20T04:01:10;95346.56;;;16.29;51.58
73332;BME280;61560;33.718;73.040;2022-11-20T04:03:37;95344.50;;;16.33;51.30
73332;BME280;61560;33.718;73.040;2022-11-20T04:06:04;95345.34;;;16.30;52.00
73332;BME280;61560;33.718;73.040;2022-11-20T04:08:31;95341.84;;;16.29;52.43
73332;BME280;61560;33.718;73.040;2022-11-20T04:11:07;95347.88;;;16.24;52.73
73332;BME280;61560;33.718;73.040;2022-11-20T04:13:34;95353.06;;;16.22;52.61
73332;BME280;61560;33.718;73.040;2022-11-20T04:16:00;95351.50;;;16.21;51.59
73332;BME280;61560;33.718;73.040;2022-11-20T04:18:26;95352.22;;;16.25;52.57
73332;BME280;61560;33.718;73.040;2022-11-20T04:20:52;95359.44;;;16.35;53.09
73332;BME280;61560;33.718;73.040;2022-11-20T04:23:19;95358.88;;;16.40;53.67
73332;BME280;61560;33.718;73.040;2022-11-20T04:25:45;95363.56;;;16.44;53.28
73332;BME280;61560;33.718;73.040;2022-11-20T04:28:12;95370.13;;;16.50;53.11
73332;BME280;61560;33.718;73.040;2022-11-20T04:30:39;95370.47;;;16.52;52.83
73332;BME280;61560;33.718;73.040;2022-11-20T04:33:05;95364.94;;;16.52;53.41
73332;BME280;61560;33.718;73.040;2022-11-20T04:35:35;95366.13;;;16.51;53.54
73332;BME280;61560;33.718;73.040;2022-11-20T04:38:03;95368.91;;;16.51;53.37
73332;BME280;61560;33.718;73.040;2022-11-20T04:40:29;95371.41;;;16.45;52.87
73332;BME280;61560;33.718;73.040;2022-11-20T04:42:55;95370.38;;;16.39;52.34
73332;BME280;61560;33.718;73.040;2022-11-20T04:45:22;95376.84;;;16.49;52.21
73332;BME280;61560;33.718;73.040;2022-11-20T04:47:48;95377.47;;;16.69;51.82
73332;BME280;61560;33.718;73.040;2022-11-20T04:50:15;95366.13;;;16.92;50.36
73332;BME280;61560;33.718;73.040;2022-11-20T04:52:41;95367.41;;;17.03;50.83
73332;BME280;61560;33.718;73.040;2022-11-20T04:55:07;95378.13;;;17.14;49.80
73332;BME280;61560;33.718;73.040;2022-11-20T04:57:33;95368.84;;;17.20;50.07
73332;BME280;61560;33.718;73.040;2022-11-20T04:59:59;95364.94;;;17.18;50.24
73332;BME280;61560;33.718;73.040;2022-11-20T05:02:26;95364.53;;;17.19;50.69
73332;BME280;61560;33.718;73.040;2022-11-20T05:04:52;95355.97;;;17.14;50.57
73332;BME280;61560;33.718;73.040;2022-11-20T05:07:19;95368.28;;;17.13;49.71
73332;BME280;61560;33.718;73.040;2022-11-20T05:09:45;95363.88;;;17.15;49.48
73332;BME280;61560;33.718;73.040;2022-11-20T05:12:11;95360.66;;;17.17;49.85
73332;BME280;61560;33.718;73.040;2022-11-20T05:14:37;95356.66;;;17.18;49.68
73332;BME280;61560;33.718;73.040;2022-11-20T05:17:06;95360.97;;;17.19;49.81
73332;BME280;61560;33.718;73.040;2022-11-20T05:19:31;95353.00;;;17.21;48.73
73332;BME280;61560;33.718;73.040;2022-11-20T05:21:58;95350.03;;;17.15;48.47
73332;BME280;61560;33.718;73.040;2022-11-20T05:24:24;95357.88;;;17.17;48.81
73332;BME280;61560;33.718;73.040;2022-11-20T05:26:52;95344.47;;;17.15;49.62
73332;BME280;61560;33.718;73.040;2022-11-20T05:29:18;95351.34;;;17.24;49.44
73332;BME280;61560;33.718;73.040;2022-11-20T05:31:44;95343.13;;;17.20;48.90
73332;BME280;61560;33.718;73.040;2022-11-20T05:34:10;95343.03;;;17.24;49.27
73332;BME280;61560;33.718;73.040;2022-11-20T05:36:37;95336.41;;;17.34;49.58
73332;BME280;61560;33.718;73.040;2022-11-20T05:39:03;95340.63;;;17.38;48.52
73332;BME280;61560;33.718;73.040;2022-11-20T05:41:30;95336.59;;;17.39;49.14
73332;BME280;61560;33.718;73.040;2022-11-20T05:43:56;95333.28;;;17.44;49.36
73332;BME280;61560;33.718;73.040;2022-11-20T05:46:23;95329.63;;;17.47;49.82
73332;BME280;61560;33.718;73.040;2022-11-20T05:48:49;95331.09;;;17.52;49.93
73332;BME280;61560;33.718;73.040;2022-11-20T05:51:17;95318.69;;;17.56;49.78
73332;BME280;61560;33.718;73.040;2022-11-20T05:53:43;95325.41;;;17.68;50.42
73332;BME280;61560;33.718;73.040;2022-11-20T05:56:11;95318.31;;;17.79;50.59
73332;BME280;61560;33.718;73.040;2022-11-20T05:58:37;95315.16;;;17.90;50.18
73332;BME280;61560;33.718;73.040;2022-11-20T06:01:08;95313.28;;;17.99;49.93
73332;BME280;61560;33.718;73.040;2022-11-20T06:03:34;95319.19;;;18.11;49.72
73332;BME280;61560;33.718;73.040;2022-11-20T06:06:01;95313.09;;;18.16;48.36
73332;BME280;61560;33.718;73.040;2022-11-20T06:08:27;95302.97;;;18.22;48.11
73332;BME280;61560;33.718;73.040;2022-11-20T06:10:53;95302.06;;;18.25;48.78
73332;BME280;61560;33.718;73.040;2022-11-20T06:13:21;95300.41;;;18.27;48.51
73332;BME280;61560;33.718;73.040;2022-11-20T06:15:50;95297.50;;;18.31;48.89
73332;BME280;61560;33.718;73.040;2022-11-20T06:18:17;95304.03;;;18.37;48.48
73332;BME280;61560;33.718;73.040;2022-11-20T06:20:43;95296.78;;;18.39;48.73
73332;BME280;61560;33.718;73.040;2022-11-20T06:23:10;95297.88;;;18.42;47.85
73332;BME280;61560;33.718;73.040;2022-11-20T06:25:42;95294.91;;;18.49;47.98
73332;BME280;61560;33.718;73.040;2022-11-20T06:28:09;95295.31;;;18.47;47.73
73332;BME280;61560;33.718;73.040;2022-11-20T06:30:35;95287.66;;;18.51;47.97
73332;BME280;61560;33.718;73.040;2022-11-20T06:33:02;95290.03;;;18.62;47.75
73332;BME280;61560;33.718;73.040;2022-11-20T06:35:28;95280.84;;;18.74;47.38
73332;BME280;61560;33.718;73.040;2022-11-20T06:37:55;95282.59;;;18.80;48.09
73332;BME280;61560;33.718;73.040;2022-11-20T06:40:21;95275.09;;;18.90;47.82
73332;BME280;61560;33.718;73.040;2022-11-20T06:42:48;95272.97;;;18.94;47.54
73332;BME280;61560;33.718;73.040;2022-11-20T06:45:15;95261.72;;;18.98;47.69
73332;BME280;61560;33.718;73.040;2022-11-20T06:47:41;95270.34;;;19.00;46.95
73332;BME280;61560;33.718;73.040;2022-11-20T06:50:07;95261.75;;;19.07;47.04
73332;BME280;61560;33.718;73.040;2022-11-20T06:52:34;95264.56;;;19.16;47.33
73332;BME280;61560;33.718;73.040;2022-11-20T06:55:00;95255.50;;;19.24;46.41
73332;BME280;61560;33.718;73.040;2022-11-20T06:57:26;95260.66;;;19.35;46.29
73332;BME280;61560;33.718;73.040;2022-11-20T06:59:52;95260.03;;;19.40;46.33
73332;BME280;61560;33.718;73.040;2022-11-20T07:02:19;95247.41;;;19.48;46.37
73332;BME280;61560;33.718;73.040;2022-11-20T07:04:45;95253.13;;;19.53;47.00
73332;BME280;61560;33.718;73.040;2022-11-20T07:07:12;95253.75;;;19.57;46.16
73332;BME280;61560;33.718;73.040;2022-11-20T07:09:38;95249.91;;;19.64;45.91
73332;BME280;61560;33.718;73.040;2022-11-20T07:12:04;95252.06;;;19.69;46.36
73332;BME280;61560;33.718;73.040;2022-11-20T07:14:30;95246.97;;;19.77;46.17
73332;BME280;61560;33.718;73.040;2022-11-20T07:16:56;95234.47;;;19.81;44.85
73332;BME280;61560;33.718;73.040;2022-11-20T07:19:22;95228.31;;;19.86;44.14
73332;BME280;61560;33.718;73.040;2022-11-20T07:21:49;95223.53;;;19.87;44.67
73332;BME280;61560;33.718;73.040;2022-11-20T07:24:15;95222.59;;;19.90;45.16
73332;BME280;61560;33.718;73.040;2022-11-20T07:26:42;95221.06;;;19.98;44.31
73332;BME280;61560;33.718;73.040;2022-11-20T07:29:08;95222.13;;;20.00;44.04
73332;BME280;61560;33.718;73.040;2022-11-20T07:31:35;95215.31;;;20.01;43.32
73332;BME280;61560;33.718;73.040;2022-11-20T07:34:01;95216.09;;;20.02;42.71
73332;BME280;61560;33.718;73.040;2022-11-20T07:36:28;95211.03;;;20.09;43.15
73332;BME280;61560;33.718;73.040;2022-11-20T07:38:54;95210.69;;;20.16;43.44
73332;BME280;61560;33.718;73.040;2022-11-20T07:41:20;95204.34;;;20.16;43.36
73332;BME280;61560;33.718;73.040;2022-11-20T07:43:46;95194.94;;;20.22;41.99
73332;BME280;61560;33.718;73.040;2022-11-20T07:46:12;95189.22;;;20.26;41.34
73332;BME280;61560;33.718;73.040;2022-11-20T07:48:39;95189.53;;;20.28;41.25
73332;BME280;61560;33.718;73.040;2022-11-20T07:51:06;95186.59;;;20.31;40.48
73332;BME280;61560;33.718;73.040;2022-11-20T07:53:32;95181.78;;;20.32;39.78
73332;BME280;61560;33.718;73.040;2022-11-20T07:56:02;95176.09;;;20.35;39.56
73332;BME280;61560;33.718;73.040;2022-11-20T07:58:31;95175.78;;;20.33;36.74
73332;BME280;61560;33.718;73.040;2022-11-20T08:01:04;95172.69;;;20.31;37.39
73332;BME280;61560;33.718;73.040;2022-11-20T08:03:30;95172.53;;;20.35;38.08
73332;BME280;61560;33.718;73.040;2022-11-20T08:06:00;95164.47;;;20.37;37.60
73332;BME280;61560;33.718;73.040;2022-11-20T08:08:28;95164.78;;;20.39;37.87
73332;BME280;61560;33.718;73.040;2022-11-20T08:10:56;95157.03;;;20.43;37.49
73332;BME280;61560;33.718;73.040;2022-11-20T08:13:42;95152.38;;;20.49;37.76
73332;BME280;61560;33.718;73.040;2022-11-20T08:16:27;95151.16;;;20.50;37.44
73332;BME280;61560;33.718;73.040;2022-11-20T08:18:53;95162.13;;;20.54;37.60
73332;BME280;61560;33.718;73.040;2022-11-20T08:21:20;95150.50;;;20.55;37.37
73332;BME280;61560;33.718;73.040;2022-11-20T08:23:46;95150.81;;;20.57;37.32
73332;BME280;61560;33.718;73.040;2022-11-20T08:26:12;95151.28;;;20.56;37.15
73332;BME280;61560;33.718;73.040;2022-11-20T08:28:38;95140.63;;;20.54;36.97
73332;BME280;61560;33.718;73.040;2022-11-20T08:31:06;95138.16;;;20.56;37.51
73332;BME280;61560;33.718;73.040;2022-11-20T08:33:32;95130.84;;;20.59;37.47
73332;BME280;61560;33.718;73.040;2022-11-20T08:36:02;95124.06;;;20.60;38.04
73332;BME280;61560;33.718;73.040;2022-11-20T08:38:30;95118.31;;;20.63;37.88
73332;BME280;61560;33.718;73.040;2022-11-20T08:40:59;95117.56;;;20.63;38.06
73332;BME280;61560;33.718;73.040;2022-11-20T08:43:46;95117.72;;;20.59;38.33
73332;BME280;61560;33.718;73.040;2022-11-20T08:46:13;95118.97;;;20.58;38.64
73332;BME280;61560;33.718;73.040;2022-11-20T08:48:39;95114.47;;;20.61;38.70
73332;BME280;61560;33.718;73.040;2022-11-20T08:51:05;95114.00;;;20.62;38.74
73332;BME280;61560;33.718;73.040;2022-11-20T08:53:31;95109.22;;;20.63;38.46
73332;BME280;61560;33.718;73.040;2022-11-20T08:55:57;95108.25;;;20.66;38.43
73332;BME280;61560;33.718;73.040;2022-11-20T08:58:24;95103.94;;;20.65;38.88
73332;BME280;61560;33.718;73.040;2022-11-20T09:00:50;95104.69;;;20.65;38.89
73332;BME280;61560;33.718;73.040;2022-11-20T09:03:17;95095.91;;;20.67;39.30
73332;BME280;61560;33.718;73.040;2022-11-20T09:05:43;95101.47;;;20.67;39.01
73332;BME280;61560;33.718;73.040;2022-11-20T09:08:09;95102.22;;;20.67;39.29
73332;BME280;61560;33.718;73.040;2022-11-20T09:10:35;95101.47;;;20.67;38.63
73332;BME280;61560;33.718;73.040;2022-11-20T09:13:03;95102.22;;;20.67;38.33
73332;BME280;61560;33.718;73.040;2022-11-20T09:15:29;95088.28;;;20.67;38.22
73332;BME280;61560;33.718;73.040;2022-11-20T09:17:56;95090.34;;;20.67;38.63
73332;BME280;61560;33.718;73.040;2022-11-20T09:20:22;95085.69;;;20.64;38.95
73332;BME280;61560;33.718;73.040;2022-11-20T09:22:49;95084.16;;;20.63;39.01
73332;BME280;61560;33.718;73.040;2022-11-20T09:25:15;95084.78;;;20.58;38.58
73332;BME280;61560;33.718;73.040;2022-11-20T09:27:41;95086.50;;;20.55;38.86
73332;BME280;61560;33.718;73.040;2022-11-20T09:30:09;95081.41;;;20.54;38.52
73332;BME280;61560;33.718;73.040;2022-11-20T09:32:38;95086.19;;;20.53;39.21
73332;BME280;61560;33.718;73.040;2022-11-20T09:35:04;95084.19;;;20.54;38.95
73332;BME280;61560;33.718;73.040;2022-11-20T09:37:30;95079.41;;;20.54;39.29
73332;BME280;61560;33.718;73.040;2022-11-20T09:39:56;95076.78;;;20.51;39.18
73332;BME280;61560;33.718;73.040;2022-11-20T09:49:57;95076.06;;;20.41;39.22
73332;BME280;61560;33.718;73.040;2022-11-20T09:55:13;95061.84;;;20.39;39.12
73332;BME280;61560;33.718;73.040;2022-11-20T09:57:41;95067.09;;;20.37;38.64
73332;BME280;61560;33.718;73.040;2022-11-20T10:00:10;95056.44;;;20.35;39.03
73332;BME280;61560;33.718;73.040;2022-11-20T10:05:20;95055.38;;;20.33;38.52
73332;BME280;61560;33.718;73.040;2022-11-20T10:10:36;95053.81;;;20.32;39.64
73332;BME280;61560;33.718;73.040;2022-11-20T10:16:40;95045.66;;;20.28;40.16
73332;BME280;61560;33.718;73.040;2022-11-20T10:29:06;95038.56;;;20.18;40.21
73332;BME280;61560;33.718;73.040;2022-11-20T10:31:34;95042.28;;;20.15;40.34
73332;BME280;61560;33.718;73.040;2022-11-20T10:34:12;95034.88;;;20.12;40.50
73332;BME280;61560;33.718;73.040;2022-11-20T10:39:48;95034.44;;;20.05;40.66
73332;BME280;61560;33.718;73.040;2022-11-20T10:42:21;95042.19;;;20.01;40.80
73332;BME280;61560;33.718;73.040;2022-11-20T10:44:52;95036.75;;;19.97;41.23
73332;BME280;61560;33.718;73.040;2022-11-20T10:47:30;95036.94;;;19.94;41.32
73332;BME280;61560;33.718;73.040;2022-11-20T10:49:57;95037.88;;;19.91;41.49
73332;BME280;61560;33.718;73.040;2022-11-20T10:57:58;95038.50;;;19.77;42.51
73332;BME280;61560;33.718;73.040;2022-11-20T11:00:30;95041.16;;;19.71;42.54
73332;BME280;61560;33.718;73.040;2022-11-20T11:02:56;95039.03;;;19.66;43.12
73332;BME280;61560;33.718;73.040;2022-11-20T11:07:55;95041.03;;;19.56;43.52
73332;BME280;61560;33.718;73.040;2022-11-20T11:13:21;95032.41;;;19.45;43.89
73332;BME280;61560;33.718;73.040;2022-11-20T11:15:47;95033.03;;;19.40;44.09
73332;BME280;61560;33.718;73.040;2022-11-20T11:18:22;95035.31;;;19.33;44.34
73332;BME280;61560;33.718;73.040;2022-11-20T11:20:50;95037.19;;;19.27;44.51
73332;BME280;61560;33.718;73.040;2022-11-20T11:23:31;95045.81;;;19.20;44.59
73332;BME280;61560;33.718;73.040;2022-11-20T11:25:59;95042.88;;;19.14;44.48
73332;BME280;61560;33.718;73.040;2022-11-20T11:28:25;95041.50;;;19.10;44.51
73332;BME280;61560;33.718;73.040;2022-11-20T11:30:54;95046.91;;;19.04;44.57
73332;BME280;61560;33.718;73.040;2022-11-20T11:35:47;95031.91;;;18.93;45.29
73332;BME280;61560;33.718;73.040;2022-11-20T11:38:19;95037.31;;;18.87;45.42
73332;BME280;61560;33.718;73.040;2022-11-20T11:40:49;95037.59;;;18.80;45.78
73332;BME280;61560;33.718;73.040;2022-11-20T11:43:19;95031.56;;;18.72;46.02
73332;BME280;61560;33.718;73.040;2022-11-20T11:48:58;95035.25;;;18.60;46.57
73332;BME280;61560;33.718;73.040;2022-11-20T11:51:31;95030.75;;;18.54;46.25
73332;BME280;61560;33.718;73.040;2022-11-20T11:53:59;95034.16;;;18.49;46.33
73332;BME280;61560;33.718;73.040;2022-11-20T11:56:26;95031.63;;;18.42;46.60
73332;BME280;61560;33.718;73.040;2022-11-20T11:58:54;95031.47;;;18.36;46.46
73332;BME280;61560;33.718;73.040;2022-11-20T12:01:41;95036.38;;;18.32;46.63
73332;BME280;61560;33.718;73.040;2022-11-20T12:04:24;95033.88;;;18.25;46.96
73332;BME280;61560;33.718;73.040;2022-11-20T12:07:01;95031.72;;;18.20;47.01
73332;BME280;61560;33.718;73.040;2022-11-20T12:09:34;95035.09;;;18.15;46.91
73332;BME280;61560;33.718;73.040;2022-11-20T12:12:24;95033.66;;;18.11;47.51
73332;BME280;61560;33.718;73.040;2022-11-20T12:14:48;95037.84;;;18.06;47.35
73332;BME280;61560;33.718;73.040;2022-11-20T12:17:16;95035.63;;;18.01;47.69
73332;BME280;61560;33.718;73.040;2022-11-20T12:19:43;95042.06;;;17.98;47.41
73332;BME280;61560;33.718;73.040;2022-11-20T12:27:28;95038.66;;;17.85;47.63
73332;BME280;61560;33.718;73.040;2022-11-20T12:30:00;95043.88;;;17.83;47.89
73332;BME280;61560;33.718;73.040;2022-11-20T12:40:28;95044.41;;;17.69;48.08
73332;BME280;61560;33.718;73.040;2022-11-20T12:48:34;95049.56;;;17.58;48.94
73332;BME280;61560;33.718;73.040;2022-11-20T12:51:11;95047.81;;;17.51;49.21
73332;BME280;61560;33.718;73.040;2022-11-20T12:54:05;95050.06;;;17.44;49.85
73332;BME280;61560;33.718;73.040;2022-11-20T13:04:59;95061.84;;;17.13;52.52
73332;BME280;61560;33.718;73.040;2022-11-20T13:07:29;95063.94;;;17.09;52.54
73332;BME280;61560;33.718;73.040;2022-11-20T13:09:56;95065.63;;;17.07;52.62
73332;BME280;61560;33.718;73.040;2022-11-20T13:12:30;95053.44;;;17.04;52.43
73332;BME280;61560;33.718;73.040;2022-11-20T13:20:17;95065.66;;;16.94;52.97
73332;BME280;61560;33.718;73.040;2022-11-20T13:22:49;95061.00;;;16.91;53.00
73332;BME280;61560;33.718;73.040;2022-11-20T13:25:26;95063.75;;;16.91;51.90
73332;BME280;61560;33.718;73.040;2022-11-20T13:27:53;95058.69;;;16.90;51.37
73332;BME280;61560;33.718;73.040;2022-11-20T13:30:21;95070.66;;;16.87;51.44
73332;BME280;61560;33.718;73.040;2022-11-20T13:35:26;95065.03;;;16.78;52.00
73332;BME280;61560;33.718;73.040;2022-11-20T13:38:04;95068.34;;;16.73;52.12
73332;BME280;61560;33.718;73.040;2022-11-20T13:40:31;95064.50;;;16.70;52.12
73332;BME280;61560;33.718;73.040;2022-11-20T13:45:42;95067.03;;;16.65;51.91
73332;BME280;61560;33.718;73.040;2022-11-20T13:48:18;95071.50;;;16.62;51.74
73332;BME280;61560;33.718;73.040;2022-11-20T13:51:07;95073.47;;;16.62;51.40
73332;BME280;61560;33.718;73.040;2022-11-20T13:56:05;95068.41;;;16.60;51.24
73332;BME280;61560;33.718;73.040;2022-11-20T14:01:28;95072.69;;;16.61;51.22
73332;BME280;61560;33.718;73.040;2022-11-20T14:03:57;95076.38;;;16.58;50.88
73332;BME280;61560;33.718;73.040;2022-11-20T14:06:27;95079.88;;;16.59;50.57
73332;BME280;61560;33.718;73.040;2022-11-20T14:08:54;95070.84;;;16.58;49.94
73332;BME280;61560;33.718;73.040;2022-11-20T14:11:22;95068.16;;;16.55;49.94
73332;BME280;61560;33.718;73.040;2022-11-20T14:14:03;95077.44;;;16.48;50.65
73332;BME280;61560;33.718;73.040;2022-11-20T14:16:34;95084.72;;;16.42;50.89
73332;BME280;61560;33.718;73.040;2022-11-20T14:22:07;95093.47;;;16.28;51.91
73332;BME280;61560;33.718;73.040;2022-11-20T14:24:34;95100.34;;;16.23;52.45
73332;BME280;61560;33.718;73.040;2022-11-20T14:27:01;95109.31;;;16.15;53.23
73332;BME280;61560;33.718;73.040;2022-11-20T14:29:32;95114.16;;;16.11;53.76
73332;BME280;61560;33.718;73.040;2022-11-20T14:32:00;95108.84;;;16.04;54.93
73332;BME280;61560;33.718;73.040;2022-11-20T14:34:37;95106.63;;;15.99;55.50
73332;BME280;61560;33.718;73.040;2022-11-20T14:37:05;95116.25;;;15.94;56.18